createdAt,value
2022-07-30T00:00:57.781Z,0.00
2022-07-30T00:01:57.732Z,0.00
2022-07-30T00:02:57.723Z,0.00
2022-07-30T00:03:57.809Z,0.00
2022-07-30T00:04:57.712Z,0.00
2022-07-30T00:05:57.710Z,0.00
2022-07-30T00:06:57.995Z,0.00
2022-07-30T00:07:57.699Z,0.00
2022-07-30T00:08:57.700Z,0.00
2022-07-30T00:09:57.685Z,0.00
2022-07-30T00:10:57.677Z,0.00
2022-07-30T00:11:57.677Z,0.00
2022-07-30T00:12:57.666Z,0.00
2022-07-30T00:13:57.664Z,0.00
2022-07-30T00:14:57.655Z,0.00
2022-07-30T00:15:57.651Z,0.00
2022-07-30T00:16:58.237Z,0.00
2022-07-30T00:17:57.642Z,0.00
2022-07-30T00:18:57.636Z,0.00
2022-07-30T00:19:57.629Z,0.00
2022-07-30T00:20:57.619Z,0.00
2022-07-30T00:21:57.617Z,0.00
2022-07-30T00:22:57.609Z,0.00
2022-07-30T00:24:01.170Z,0.00
2022-07-30T00:24:57.597Z,0.00
2022-07-30T00:25:57.595Z,0.00
2022-07-30T00:26:57.802Z,0.00
2022-07-30T00:27:57.584Z,0.00
2022-07-30T00:28:57.579Z,0.00
2022-07-30T00:29:57.571Z,0.00
2022-07-30T00:30:57.600Z,0.00
2022-07-30T00:31:57.560Z,0.00
2022-07-30T00:32:57.551Z,0.00
2022-07-30T00:33:57.552Z,0.00
2022-07-30T00:34:57.540Z,0.00
2022-07-30T00:35:57.537Z,0.00
2022-07-30T00:36:58.027Z,0.00
2022-07-30T00:37:57.524Z,0.00
2022-07-30T00:38:57.517Z,0.00
2022-07-30T00:39:57.513Z,0.00
2022-07-30T00:40:57.555Z,0.00
2022-07-30T00:41:57.501Z,0.00
2022-07-30T00:42:57.495Z,0.00
2022-07-30T00:43:57.497Z,0.00
2022-07-30T00:44:57.482Z,0.00
2022-07-30T00:45:57.552Z,0.00
2022-07-30T00:46:57.815Z,0.00
2022-07-30T00:47:57.467Z,0.00
2022-07-30T00:48:57.485Z,0.00
2022-07-30T00:49:57.455Z,0.00
2022-07-30T00:50:57.447Z,0.00
2022-07-30T00:51:57.446Z,0.00
2022-07-30T00:52:57.436Z,0.00
2022-07-30T00:53:57.432Z,0.00
2022-07-30T00:54:57.423Z,0.00
2022-07-30T00:55:57.420Z,0.00
2022-07-30T00:56:57.512Z,0.00
2022-07-30T00:57:57.408Z,0.00
2022-07-30T00:58:57.401Z,0.00
2022-07-30T00:59:57.396Z,0.00
2022-07-30T01:00:57.527Z,0.00
2022-07-30T01:01:57.428Z,0.00
2022-07-30T01:02:57.378Z,0.00
2022-07-30T01:03:57.373Z,0.00
2022-07-30T01:04:57.365Z,0.00
2022-07-30T01:05:57.362Z,0.00
2022-07-30T01:06:57.672Z,0.00
2022-07-30T01:07:57.349Z,0.00
2022-07-30T01:08:57.338Z,0.00
2022-07-30T01:09:57.337Z,0.00
2022-07-30T01:10:57.328Z,0.00
2022-07-30T01:11:57.323Z,0.00
2022-07-30T01:12:57.314Z,0.00
2022-07-30T01:13:57.312Z,0.00
2022-07-30T01:14:57.304Z,0.00
2022-07-30T01:15:57.299Z,0.00
2022-07-30T01:16:57.609Z,0.00
2022-07-30T01:17:57.289Z,0.00
2022-07-30T01:18:57.281Z,0.00
2022-07-30T01:19:57.275Z,0.00
2022-07-30T01:20:57.279Z,0.00
2022-07-30T01:21:57.261Z,0.00
2022-07-30T01:22:57.256Z,0.00
2022-07-30T01:23:57.249Z,0.00
2022-07-30T01:24:57.244Z,0.00
2022-07-30T01:25:57.235Z,0.00
2022-07-30T01:26:57.578Z,0.00
2022-07-30T01:27:57.224Z,0.00
2022-07-30T01:28:57.218Z,0.00
2022-07-30T01:29:57.214Z,0.00
2022-07-30T01:30:57.207Z,0.00
2022-07-30T01:31:57.238Z,0.00
2022-07-30T01:32:57.195Z,0.00
2022-07-30T01:33:57.185Z,0.00
2022-07-30T01:34:57.182Z,0.00
2022-07-30T01:35:57.175Z,0.00
2022-07-30T01:36:57.168Z,0.00
2022-07-30T01:37:57.161Z,0.00
2022-07-30T01:38:57.156Z,0.00
2022-07-30T01:39:57.152Z,0.00
2022-07-30T01:40:57.144Z,0.00
2022-07-30T01:41:57.136Z,0.00
2022-07-30T01:42:57.132Z,0.00
2022-07-30T01:43:57.127Z,0.00
2022-07-30T01:44:57.119Z,0.00
2022-07-30T01:45:57.127Z,0.00
2022-07-30T01:46:57.141Z,0.00
2022-07-30T01:47:57.099Z,0.00
2022-07-30T01:48:57.131Z,0.00
2022-07-30T01:49:57.084Z,0.00
2022-07-30T01:50:57.079Z,0.00
2022-07-30T01:51:57.072Z,0.00
2022-07-30T01:52:57.068Z,0.00
2022-07-30T01:53:57.159Z,0.00
2022-07-30T01:54:57.054Z,0.00
2022-07-30T01:55:57.046Z,0.00
2022-07-30T01:56:57.444Z,0.00
2022-07-30T01:57:57.034Z,0.00
2022-07-30T01:58:57.034Z,0.00
2022-07-30T01:59:57.021Z,0.00
2022-07-30T02:00:57.058Z,0.00
2022-07-30T02:01:57.008Z,0.00
2022-07-30T02:02:57.005Z,0.00
2022-07-30T02:03:57.057Z,0.00
2022-07-30T02:04:56.991Z,0.00
2022-07-30T02:05:56.989Z,0.00
2022-07-30T02:06:57.055Z,0.00
2022-07-30T02:07:56.969Z,0.00
2022-07-30T02:08:56.965Z,0.00
2022-07-30T02:09:56.963Z,0.00
2022-07-30T02:10:56.953Z,0.00
2022-07-30T02:11:56.944Z,0.00
2022-07-30T02:12:56.940Z,0.00
2022-07-30T02:13:56.932Z,0.00
2022-07-30T02:14:56.925Z,0.00
2022-07-30T02:15:56.953Z,0.00
2022-07-30T02:16:56.954Z,0.00
2022-07-30T02:17:56.905Z,0.00
2022-07-30T02:18:56.909Z,0.00
2022-07-30T02:19:56.894Z,0.00
2022-07-30T02:20:56.891Z,0.00
2022-07-30T02:21:56.879Z,0.00
2022-07-30T02:22:56.876Z,0.00
2022-07-30T02:23:56.867Z,0.00
2022-07-30T02:24:56.861Z,0.00
2022-07-30T02:25:56.858Z,0.00
2022-07-30T02:26:56.915Z,0.00
2022-07-30T02:27:56.842Z,0.00
2022-07-30T02:28:56.836Z,0.00
2022-07-30T02:29:56.828Z,0.00
2022-07-30T02:30:56.825Z,0.00
2022-07-30T02:31:56.868Z,0.00
2022-07-30T02:32:56.823Z,0.00
2022-07-30T02:33:56.800Z,0.00
2022-07-30T02:34:56.802Z,0.00
2022-07-30T02:35:56.787Z,0.00
2022-07-30T02:36:56.824Z,0.00
2022-07-30T02:37:56.776Z,0.00
2022-07-30T02:38:56.772Z,0.00
2022-07-30T02:39:56.763Z,0.00
2022-07-30T02:40:56.761Z,0.00
2022-07-30T02:41:56.750Z,0.00
2022-07-30T02:42:56.749Z,0.00
2022-07-30T02:43:56.738Z,0.00
2022-07-30T02:44:56.731Z,0.00
2022-07-30T02:45:56.723Z,0.00
2022-07-30T02:46:56.773Z,0.00
2022-07-30T02:47:56.709Z,0.00
2022-07-30T02:48:56.768Z,0.00
2022-07-30T02:49:56.695Z,0.00
2022-07-30T02:50:56.691Z,0.00
2022-07-30T02:51:56.684Z,0.00
2022-07-30T02:52:56.679Z,0.00
2022-07-30T02:53:56.671Z,0.00
2022-07-30T02:54:56.666Z,0.00
2022-07-30T02:55:56.656Z,0.00
2022-07-30T02:56:56.650Z,0.00
2022-07-30T02:57:56.643Z,0.00
2022-07-30T02:58:56.638Z,0.00
2022-07-30T02:59:56.633Z,0.00
2022-07-30T03:00:56.677Z,0.00
2022-07-30T03:01:56.688Z,0.00
2022-07-30T03:02:57.099Z,0.00
2022-07-30T03:03:56.603Z,0.00
2022-07-30T03:04:56.596Z,0.00
2022-07-30T03:05:56.589Z,0.00
2022-07-30T03:06:56.584Z,0.00
2022-07-30T03:07:56.579Z,0.00
2022-07-30T03:08:56.572Z,0.00
2022-07-30T03:09:56.565Z,0.00
2022-07-30T03:10:56.659Z,0.00
2022-07-30T03:11:56.549Z,0.00
2022-07-30T03:12:56.549Z,0.00
2022-07-30T03:13:56.536Z,0.00
2022-07-30T03:14:56.531Z,0.00
2022-07-30T03:15:56.621Z,0.00
2022-07-30T03:16:56.535Z,0.00
2022-07-30T03:17:56.508Z,0.00
2022-07-30T03:18:56.505Z,0.00
2022-07-30T03:19:56.496Z,0.00
2022-07-30T03:20:56.490Z,0.00
2022-07-30T03:21:56.481Z,0.00
2022-07-30T03:22:56.477Z,0.00
2022-07-30T03:23:56.469Z,0.00
2022-07-30T03:24:56.506Z,0.00
2022-07-30T03:25:56.455Z,0.00
2022-07-30T03:26:56.449Z,0.00
2022-07-30T03:27:56.440Z,0.00
2022-07-30T03:28:56.437Z,0.00
2022-07-30T03:29:56.427Z,0.00
2022-07-30T03:30:56.469Z,4.00
2022-07-30T03:31:56.525Z,4.00
2022-07-30T03:32:56.409Z,0.00
2022-07-30T03:33:56.403Z,4.00
2022-07-30T03:34:56.464Z,4.00
2022-07-30T03:35:56.388Z,4.00
2022-07-30T03:36:56.382Z,4.00
2022-07-30T03:37:56.373Z,8.00
2022-07-30T03:38:56.373Z,8.00
2022-07-30T03:39:56.361Z,8.00
2022-07-30T03:40:56.354Z,12.00
2022-07-30T03:41:56.345Z,8.00
2022-07-30T03:42:56.340Z,12.00
2022-07-30T03:43:56.337Z,12.00
2022-07-30T03:44:56.327Z,20.00
2022-07-30T03:45:56.319Z,20.00
2022-07-30T03:46:56.353Z,20.00
2022-07-30T03:47:56.305Z,24.00
2022-07-30T03:48:56.339Z,28.00
2022-07-30T03:49:56.356Z,36.00
2022-07-30T03:50:56.287Z,36.00
2022-07-30T03:51:56.280Z,44.00
2022-07-30T03:52:56.272Z,48.00
2022-07-30T03:53:56.264Z,56.00
2022-07-30T03:54:56.260Z,60.00
2022-07-30T03:55:56.250Z,64.00
2022-07-30T03:56:56.245Z,72.00
2022-07-30T03:57:56.236Z,80.00
2022-07-30T03:58:56.233Z,88.00
2022-07-30T03:59:56.227Z,96.00
2022-07-30T04:00:56.317Z,108.00
2022-07-30T04:01:56.264Z,112.00
2022-07-30T04:02:56.207Z,124.00
2022-07-30T04:03:56.304Z,136.00
2022-07-30T04:04:56.208Z,148.00
2022-07-30T04:05:56.182Z,156.00
2022-07-30T04:06:56.177Z,168.00
2022-07-30T04:07:56.170Z,184.00
2022-07-30T04:08:56.163Z,196.00
2022-07-30T04:09:56.156Z,212.00
2022-07-30T04:10:56.199Z,228.00
2022-07-30T04:11:56.140Z,244.00
2022-07-30T04:12:56.136Z,260.00
2022-07-30T04:13:56.127Z,276.00
2022-07-30T04:14:56.125Z,300.00
2022-07-30T04:16:40.169Z,320.00
2022-07-30T04:16:56.118Z,340.00
2022-07-30T04:17:56.099Z,364.00
2022-07-30T04:18:56.096Z,388.00
2022-07-30T04:19:56.087Z,412.00
2022-07-30T04:20:56.080Z,436.00
2022-07-30T04:21:56.071Z,468.00
2022-07-30T04:22:56.072Z,492.00
2022-07-30T04:24:04.459Z,524.00
2022-07-30T04:24:56.052Z,556.00
2022-07-30T04:25:56.044Z,588.00
2022-07-30T04:26:56.039Z,624.00
2022-07-30T04:28:03.160Z,660.00
2022-07-30T04:28:56.026Z,696.00
2022-07-30T04:29:56.022Z,736.00
2022-07-30T04:30:56.055Z,780.00
2022-07-30T04:31:56.001Z,824.00
2022-07-30T04:32:55.997Z,876.00
2022-07-30T04:33:55.988Z,924.00
2022-07-30T04:34:55.987Z,972.00
2022-07-30T04:35:55.976Z,1024.00
2022-07-30T04:36:55.970Z,1108.00
2022-07-30T04:37:55.961Z,1156.00
2022-07-30T04:38:55.957Z,1260.00
2022-07-30T04:39:55.948Z,3488.00
2022-07-30T04:40:55.943Z,5700.00
2022-07-30T04:41:55.935Z,5652.00
2022-07-30T04:42:55.944Z,5900.00
2022-07-30T04:43:55.923Z,7664.00
2022-07-30T04:44:55.916Z,8736.00
2022-07-30T04:45:55.909Z,8584.00
2022-07-30T04:46:55.908Z,9504.00
2022-07-30T04:47:55.897Z,11456.00
2022-07-30T04:48:55.927Z,12320.00
2022-07-30T04:49:55.889Z,12704.00
2022-07-30T04:50:55.882Z,13472.00
2022-07-30T04:51:55.875Z,14016.00
2022-07-30T04:52:55.871Z,14944.00
2022-07-30T04:53:55.864Z,14816.00
2022-07-30T04:54:55.862Z,14944.00
2022-07-30T04:55:55.856Z,16608.00
2022-07-30T04:56:55.854Z,16224.00
2022-07-30T04:57:55.849Z,16256.00
2022-07-30T04:58:55.849Z,16704.00
2022-07-30T04:59:55.845Z,16800.00
2022-07-30T05:00:55.839Z,16480.00
2022-07-30T05:01:55.928Z,17632.00
2022-07-30T05:02:55.836Z,17664.00
2022-07-30T05:03:55.831Z,17216.00
2022-07-30T05:04:55.878Z,18720.00
2022-07-30T05:05:57.636Z,18784.00
2022-07-30T05:06:55.828Z,21408.00
2022-07-30T05:07:55.824Z,22464.00
2022-07-30T05:08:55.822Z,21312.00
2022-07-30T05:09:55.820Z,22848.00
2022-07-30T05:10:55.820Z,26240.00
2022-07-30T05:11:55.816Z,14464.00
2022-07-30T05:12:55.815Z,4396.00
2022-07-30T05:13:55.815Z,3272.00
2022-07-30T05:14:55.816Z,3180.00
2022-07-30T05:15:55.851Z,3176.00
2022-07-30T05:16:55.814Z,3176.00
2022-07-30T05:17:55.807Z,3176.00
2022-07-30T05:18:55.807Z,3180.00
2022-07-30T05:19:55.806Z,3180.00
2022-07-30T05:20:55.804Z,3176.00
2022-07-30T05:21:55.800Z,3184.00
2022-07-30T05:22:55.800Z,3192.00
2022-07-30T05:23:55.796Z,3192.00
2022-07-30T05:24:55.795Z,3196.00
2022-07-30T05:25:55.793Z,3184.00
2022-07-30T05:26:55.790Z,3184.00
2022-07-30T05:27:55.798Z,3192.00
2022-07-30T05:28:56.999Z,3208.00
2022-07-30T05:29:55.782Z,3220.00
2022-07-30T05:30:55.821Z,3236.00
2022-07-30T05:31:55.779Z,3256.00
2022-07-30T05:32:56.046Z,3288.00
2022-07-30T05:33:58.285Z,3312.00
2022-07-30T05:34:55.771Z,3336.00
2022-07-30T05:35:55.767Z,3332.00
2022-07-30T05:36:55.765Z,3316.00
2022-07-30T05:37:55.764Z,3304.00
2022-07-30T05:38:55.758Z,3288.00
2022-07-30T05:39:58.892Z,3276.00
2022-07-30T05:40:55.751Z,3280.00
2022-07-30T05:41:55.754Z,3284.00
2022-07-30T05:42:55.754Z,3300.00
2022-07-30T05:43:56.245Z,3316.00
2022-07-30T05:44:55.740Z,3336.00
2022-07-30T05:45:55.772Z,3332.00
2022-07-30T05:46:55.739Z,3300.00
2022-07-30T05:47:55.946Z,2692.00
2022-07-30T05:48:55.807Z,2632.00
2022-07-30T05:49:55.729Z,2760.00
2022-07-30T05:50:55.723Z,2984.00
2022-07-30T05:51:55.724Z,3432.00
2022-07-30T05:52:55.724Z,3856.00
2022-07-30T05:53:55.723Z,3688.00
2022-07-30T05:54:55.721Z,3440.00
2022-07-30T05:55:55.714Z,3208.00
2022-07-30T05:56:55.707Z,3100.00
2022-07-30T05:57:55.703Z,3060.00
2022-07-30T05:58:55.697Z,3080.00
2022-07-30T05:59:55.699Z,3176.00
2022-07-30T06:00:55.691Z,3440.00
2022-07-30T06:01:55.732Z,3592.00
2022-07-30T06:02:55.685Z,3160.00
2022-07-30T06:03:55.786Z,3416.00
2022-07-30T06:04:55.715Z,3644.00
2022-07-30T06:05:55.679Z,3680.00
2022-07-30T06:06:55.673Z,3804.00
2022-07-30T06:07:55.671Z,3956.00
2022-07-30T06:08:55.665Z,4124.00
2022-07-30T06:09:55.666Z,4044.00
2022-07-30T06:10:55.659Z,3916.00
2022-07-30T06:11:57.391Z,3808.00
2022-07-30T06:12:55.651Z,3740.00
2022-07-30T06:13:55.651Z,3716.00
2022-07-30T06:14:55.649Z,3720.00
2022-07-30T06:15:55.789Z,3792.00
2022-07-30T06:16:55.640Z,3776.00
2022-07-30T06:18:02.303Z,3600.00
2022-07-30T06:18:55.632Z,3128.00
2022-07-30T06:19:55.633Z,2912.00
2022-07-30T06:20:55.628Z,2740.00
2022-07-30T06:22:01.473Z,3112.00
2022-07-30T06:22:55.622Z,3016.00
2022-07-30T06:23:55.620Z,2508.00
2022-07-30T06:24:55.614Z,1988.00
2022-07-30T06:25:55.614Z,1932.00
2022-07-30T06:26:55.607Z,1900.00
2022-07-30T06:27:55.605Z,1872.00
2022-07-30T06:28:55.601Z,1872.00
2022-07-30T06:29:55.601Z,1896.00
2022-07-30T06:30:55.614Z,1924.00
2022-07-30T06:31:55.597Z,1960.00
2022-07-30T06:32:55.587Z,2040.00
2022-07-30T06:33:55.587Z,2160.00
2022-07-30T06:35:04.022Z,2296.00
2022-07-30T06:35:55.584Z,2348.00
2022-07-30T06:36:55.577Z,2304.00
2022-07-30T06:38:05.636Z,2216.00
2022-07-30T06:38:55.569Z,2176.00
2022-07-30T06:39:57.922Z,2280.00
2022-07-30T06:40:59.192Z,2508.00
2022-07-30T06:41:55.559Z,3024.00
2022-07-30T06:42:55.554Z,2944.00
2022-07-30T06:43:55.553Z,3036.00
2022-07-30T06:44:55.547Z,2880.00
2022-07-30T06:45:55.563Z,2652.00
2022-07-30T06:46:55.539Z,2756.00
2022-07-30T06:47:55.538Z,2848.00
2022-07-30T06:48:55.581Z,2880.00
2022-07-30T06:49:55.531Z,2916.00
2022-07-30T06:50:55.526Z,2864.00
2022-07-30T06:51:55.523Z,2860.00
2022-07-30T06:52:55.518Z,2852.00
2022-07-30T06:53:55.517Z,2860.00
2022-07-30T06:54:55.511Z,2972.00
2022-07-30T06:55:58.395Z,3120.00
2022-07-30T06:57:55.501Z,2876.00
2022-07-30T06:58:55.499Z,2796.00
2022-07-30T06:59:56.825Z,3088.00
2022-07-30T07:00:55.493Z,3056.00
2022-07-30T07:01:55.560Z,3040.00
2022-07-30T07:02:55.486Z,3028.00
2022-07-30T07:03:55.526Z,3008.00
2022-07-30T07:04:55.479Z,2996.00
2022-07-30T07:05:55.474Z,2988.00
2022-07-30T07:06:55.472Z,2968.00
2022-07-30T07:07:59.486Z,2940.00
2022-07-30T07:08:55.466Z,2924.00
2022-07-30T07:09:55.463Z,2904.00
2022-07-30T07:10:55.461Z,2884.00
2022-07-30T07:11:55.455Z,2880.00
2022-07-30T07:12:55.453Z,2880.00
2022-07-30T07:13:55.450Z,2872.00
2022-07-30T07:14:55.448Z,2856.00
2022-07-30T07:15:55.542Z,2848.00
2022-07-30T07:16:55.508Z,2820.00
2022-07-30T07:17:55.436Z,2816.00
2022-07-30T07:18:55.435Z,2824.00
2022-07-30T07:19:59.589Z,2816.00
2022-07-30T07:20:55.436Z,2808.00
2022-07-30T07:21:55.426Z,2788.00
2022-07-30T07:22:55.424Z,2776.00
2022-07-30T07:23:55.420Z,2748.00
2022-07-30T07:24:55.424Z,2740.00
2022-07-30T07:25:55.415Z,2728.00
2022-07-30T07:26:55.413Z,2720.00
2022-07-30T07:28:11.993Z,2700.00
2022-07-30T07:28:55.408Z,2688.00
2022-07-30T07:30:01.862Z,2684.00
2022-07-30T07:30:55.445Z,2676.00
2022-07-30T07:32:05.398Z,2664.00
2022-07-30T07:32:55.399Z,2648.00
2022-07-30T07:33:55.395Z,2640.00
2022-07-30T07:34:55.395Z,2632.00
2022-07-30T07:35:55.392Z,2628.00
2022-07-30T07:36:55.391Z,2628.00
2022-07-30T07:37:55.384Z,2620.00
2022-07-30T07:38:55.384Z,2608.00
2022-07-30T07:39:55.381Z,2604.00
2022-07-30T07:40:55.382Z,2600.00
2022-07-30T07:41:55.375Z,2600.00
2022-07-30T07:42:55.376Z,2596.00
2022-07-30T07:43:55.372Z,2588.00
2022-07-30T07:44:55.370Z,2580.00
2022-07-30T07:45:55.441Z,2572.00
2022-07-30T07:46:55.413Z,2576.00
2022-07-30T07:47:55.365Z,2564.00
2022-07-30T07:48:55.425Z,2564.00
2022-07-30T07:49:55.360Z,2556.00
2022-07-30T07:50:59.896Z,2548.00
2022-07-30T07:51:55.357Z,2544.00
2022-07-30T07:52:55.972Z,2532.00
2022-07-30T07:54:18.590Z,2532.00
2022-07-30T07:54:55.353Z,2528.00
2022-07-30T07:55:55.406Z,2532.00
2022-07-30T07:56:55.363Z,2532.00
2022-07-30T07:57:55.345Z,2528.00
2022-07-30T07:58:56.753Z,2528.00
2022-07-30T07:59:55.344Z,2520.00
2022-07-30T08:00:55.517Z,2524.00
2022-07-30T08:01:55.380Z,2524.00
2022-07-30T08:02:55.446Z,2528.00
2022-07-30T08:03:55.338Z,2532.00
2022-07-30T08:04:55.338Z,2524.00
2022-07-30T08:06:05.648Z,2516.00
2022-07-30T08:06:55.335Z,2516.00
2022-07-30T08:07:55.330Z,2512.00
2022-07-30T08:08:55.331Z,2512.00
2022-07-30T08:09:55.329Z,2512.00
2022-07-30T08:10:55.334Z,2512.00
2022-07-30T08:11:55.326Z,2512.00
2022-07-30T08:12:55.325Z,2508.00
2022-07-30T08:13:55.345Z,2508.00
2022-07-30T08:14:55.322Z,2500.00
2022-07-30T08:15:55.319Z,2496.00
2022-07-30T08:16:55.450Z,2488.00
2022-07-30T08:17:55.315Z,2484.00
2022-07-30T08:18:55.318Z,2484.00
2022-07-30T08:19:55.314Z,2480.00
2022-07-30T08:20:55.315Z,2476.00
2022-07-30T08:22:55.310Z,2472.00
2022-07-30T08:23:55.310Z,2468.00
2022-07-30T08:24:55.308Z,2460.00
2022-07-30T08:25:55.308Z,2456.00
2022-07-30T08:26:55.306Z,2448.00
2022-07-30T08:27:55.306Z,2440.00
2022-07-30T08:28:55.303Z,2440.00
2022-07-30T08:29:55.306Z,2436.00
2022-07-30T08:30:56.964Z,2424.00
2022-07-30T08:31:55.302Z,2420.00
2022-07-30T08:32:55.298Z,2412.00
2022-07-30T08:33:55.298Z,2404.00
2022-07-30T08:34:55.297Z,2396.00
2022-07-30T08:36:03.956Z,2396.00
2022-07-30T08:36:55.294Z,2388.00
2022-07-30T08:37:55.296Z,2392.00
2022-07-30T08:38:55.293Z,2396.00
2022-07-30T08:39:55.295Z,2396.00
2022-07-30T08:40:55.291Z,2392.00
2022-07-30T08:41:55.292Z,2388.00
2022-07-30T08:42:55.289Z,2384.00
2022-07-30T08:43:55.291Z,2380.00
2022-07-30T08:44:55.286Z,2388.00
2022-07-30T08:45:55.288Z,2388.00
2022-07-30T08:46:55.285Z,2388.00
2022-07-30T08:47:55.287Z,2384.00
2022-07-30T08:48:55.286Z,2388.00
2022-07-30T08:49:55.286Z,2384.00
2022-07-30T08:50:55.283Z,2380.00
2022-07-30T08:51:55.285Z,2384.00
2022-07-30T08:52:55.283Z,2396.00
2022-07-30T08:53:55.283Z,2392.00
2022-07-30T08:54:55.281Z,2388.00
2022-07-30T08:55:58.603Z,2388.00
2022-07-30T08:56:55.279Z,2388.00
2022-07-30T08:57:55.279Z,2404.00
2022-07-30T08:58:55.279Z,2416.00
2022-07-30T09:00:00.584Z,2428.00
2022-07-30T09:01:55.280Z,2432.00
2022-07-30T09:02:55.275Z,2436.00
2022-07-30T09:03:55.403Z,2440.00
2022-07-30T09:04:55.276Z,2460.00
2022-07-30T09:05:55.277Z,2456.00
2022-07-30T09:06:55.275Z,2488.00
2022-07-30T09:07:55.281Z,2512.00
2022-07-30T09:08:55.273Z,2520.00
2022-07-30T09:09:55.280Z,2512.00
2022-07-30T09:10:55.273Z,2532.00
2022-07-30T09:11:55.275Z,2536.00
2022-07-30T09:12:55.274Z,2540.00
2022-07-30T09:13:55.275Z,2540.00
2022-07-30T09:14:55.273Z,2548.00
2022-07-30T09:15:55.274Z,2560.00
2022-07-30T09:16:55.273Z,2576.00
2022-07-30T09:17:55.276Z,2584.00
2022-07-30T09:18:55.283Z,2600.00
2022-07-30T09:19:55.274Z,2616.00
2022-07-30T09:20:55.272Z,2624.00
2022-07-30T09:21:55.274Z,2632.00
2022-07-30T09:22:55.275Z,2652.00
2022-07-30T09:23:55.274Z,2684.00
2022-07-30T09:24:55.272Z,2732.00
2022-07-30T09:25:55.276Z,2800.00
2022-07-30T09:26:55.272Z,2836.00
2022-07-30T09:27:55.326Z,2860.00
2022-07-30T09:28:55.275Z,2924.00
2022-07-30T09:29:55.275Z,2968.00
2022-07-30T09:30:55.273Z,3016.00
2022-07-30T09:31:55.276Z,3092.00
2022-07-30T09:32:55.274Z,3144.00
2022-07-30T09:33:55.274Z,3188.00
2022-07-30T09:34:55.277Z,3200.00
2022-07-30T09:35:55.278Z,3044.00
2022-07-30T09:36:55.274Z,3008.00
2022-07-30T09:37:55.277Z,3064.00
2022-07-30T09:38:55.274Z,2912.00
2022-07-30T09:39:56.248Z,2260.00
2022-07-30T09:40:57.752Z,2084.00
2022-07-30T09:41:55.276Z,2044.00
2022-07-30T09:42:55.277Z,2056.00
2022-07-30T09:43:55.277Z,2072.00
2022-07-30T09:44:55.278Z,2112.00
2022-07-30T09:45:57.148Z,2152.00
2022-07-30T09:46:55.277Z,2256.00
2022-07-30T09:47:55.280Z,2952.00
2022-07-30T09:48:55.312Z,3256.00
2022-07-30T09:49:55.280Z,3328.00
2022-07-30T09:50:55.278Z,3244.00
2022-07-30T09:51:57.003Z,2644.00
2022-07-30T09:52:55.277Z,2216.00
2022-07-30T09:53:55.280Z,2184.00
2022-07-30T09:54:55.281Z,2220.00
2022-07-30T09:55:55.280Z,2208.00
2022-07-30T09:56:55.282Z,2216.00
2022-07-30T09:57:56.643Z,2196.00
2022-07-30T09:58:55.299Z,2164.00
2022-07-30T09:59:55.281Z,2228.00
2022-07-30T10:02:01.073Z,2276.00
2022-07-30T10:02:55.287Z,2268.00
2022-07-30T10:03:55.281Z,2236.00
2022-07-30T10:04:55.286Z,2212.00
2022-07-30T10:05:55.294Z,2200.00
2022-07-30T10:06:55.284Z,2204.00
2022-07-30T10:07:55.284Z,2232.00
2022-07-30T10:08:55.309Z,2244.00
2022-07-30T10:09:55.282Z,2596.00
2022-07-30T10:10:55.285Z,2240.00
2022-07-30T10:11:55.282Z,2228.00
2022-07-30T10:12:55.286Z,2716.00
2022-07-30T10:13:55.287Z,2236.00
2022-07-30T10:14:55.298Z,2976.00
2022-07-30T10:15:55.283Z,2324.00
2022-07-30T10:16:55.283Z,2172.00
2022-07-30T10:17:55.284Z,2128.00
2022-07-30T10:18:55.285Z,2080.00
2022-07-30T10:19:55.287Z,2040.00
2022-07-30T10:20:55.287Z,1936.00
2022-07-30T10:21:55.282Z,1900.00
2022-07-30T10:22:55.285Z,1892.00
2022-07-30T10:23:55.284Z,1940.00
2022-07-30T10:24:55.284Z,2024.00
2022-07-30T10:25:55.686Z,2044.00
2022-07-30T10:26:55.285Z,2064.00
2022-07-30T10:27:57.133Z,2056.00
2022-07-30T10:28:55.283Z,2028.00
2022-07-30T10:29:55.281Z,2052.00
2022-07-30T10:30:55.285Z,2116.00
2022-07-30T10:31:55.280Z,2184.00
2022-07-30T10:32:55.282Z,2240.00
2022-07-30T10:33:55.280Z,2308.00
2022-07-30T10:34:55.283Z,2720.00
2022-07-30T10:35:55.280Z,2240.00
2022-07-30T10:36:55.281Z,2176.00
2022-07-30T10:37:55.280Z,2156.00
2022-07-30T10:38:55.284Z,2100.00
2022-07-30T10:39:55.279Z,2032.00
2022-07-30T10:40:55.280Z,2000.00
2022-07-30T10:41:55.278Z,2008.00
2022-07-30T10:42:55.281Z,2064.00
2022-07-30T10:43:55.280Z,2128.00
2022-07-30T10:44:55.284Z,2196.00
2022-07-30T10:45:55.279Z,3144.00
2022-07-30T10:46:55.280Z,3288.00
2022-07-30T10:47:55.279Z,3344.00
2022-07-30T10:48:55.300Z,3348.00
2022-07-30T10:49:55.277Z,3364.00
2022-07-30T10:50:55.279Z,3408.00
2022-07-30T10:51:55.277Z,3496.00
2022-07-30T10:52:55.909Z,3052.00
2022-07-30T10:53:55.276Z,3560.00
2022-07-30T10:54:55.309Z,3512.00
2022-07-30T10:55:55.277Z,2440.00
2022-07-30T10:56:55.278Z,2816.00
2022-07-30T10:57:55.276Z,2816.00
2022-07-30T10:58:55.281Z,2744.00
2022-07-30T10:59:55.278Z,2904.00
2022-07-30T11:00:55.289Z,2712.00
2022-07-30T11:01:55.277Z,2696.00
2022-07-30T11:02:55.279Z,3292.00
2022-07-30T11:03:55.278Z,3328.00
2022-07-30T11:04:55.279Z,3236.00
2022-07-30T11:05:55.278Z,3080.00
2022-07-30T11:06:55.281Z,3160.00
2022-07-30T11:07:55.279Z,3324.00
2022-07-30T11:08:56.996Z,2760.00
2022-07-30T11:10:05.321Z,3468.00
2022-07-30T11:10:55.283Z,3496.00
2022-07-30T11:12:05.694Z,3488.00
2022-07-30T11:12:55.290Z,3364.00
2022-07-30T11:13:55.284Z,3288.00
2022-07-30T11:14:55.286Z,3000.00
2022-07-30T11:15:55.285Z,3012.00
2022-07-30T11:16:55.287Z,2588.00
2022-07-30T11:17:55.287Z,2628.00
2022-07-30T11:19:27.413Z,2948.00
2022-07-30T11:19:59.563Z,2328.00
2022-07-30T11:20:55.292Z,2244.00
2022-07-30T11:21:55.291Z,2336.00
2022-07-30T11:22:55.293Z,3332.00
2022-07-30T11:23:56.717Z,3328.00
2022-07-30T11:24:55.304Z,3268.00
2022-07-30T11:25:55.302Z,2984.00
2022-07-30T11:26:55.298Z,3616.00
2022-07-30T11:27:55.299Z,3636.00
2022-07-30T11:28:55.298Z,3652.00
2022-07-30T11:29:55.297Z,3636.00
2022-07-30T11:30:55.305Z,3604.00
2022-07-30T11:31:58.527Z,3576.00
2022-07-30T11:32:56.337Z,3580.00
2022-07-30T11:33:55.303Z,3288.00
2022-07-30T11:34:55.306Z,3592.00
2022-07-30T11:35:55.304Z,3524.00
2022-07-30T11:36:55.308Z,3372.00
2022-07-30T11:37:55.308Z,3628.00
2022-07-30T11:38:55.310Z,3644.00
2022-07-30T11:39:55.432Z,3644.00
2022-07-30T11:40:55.315Z,3628.00
2022-07-30T11:41:55.314Z,3668.00
2022-07-30T11:42:55.317Z,3692.00
2022-07-30T11:43:55.318Z,3804.00
2022-07-30T11:44:55.321Z,3656.00
2022-07-30T11:45:55.321Z,2644.00
2022-07-30T11:46:55.325Z,2688.00
2022-07-30T11:47:55.327Z,2704.00
2022-07-30T11:48:55.368Z,2768.00
2022-07-30T11:49:55.328Z,2808.00
2022-07-30T11:50:55.332Z,2764.00
2022-07-30T11:51:55.332Z,2788.00
2022-07-30T11:52:55.336Z,2672.00
2022-07-30T11:53:55.334Z,3212.00
2022-07-30T11:54:55.338Z,4028.00
2022-07-30T11:55:55.336Z,3336.00
2022-07-30T11:56:55.341Z,3384.00
2022-07-30T11:57:55.341Z,2804.00
2022-07-30T11:58:55.343Z,3312.00
2022-07-30T11:59:55.369Z,3924.00
2022-07-30T12:00:55.345Z,3924.00
2022-07-30T12:01:55.343Z,3996.00
2022-07-30T12:02:55.349Z,3960.00
2022-07-30T12:03:55.354Z,3876.00
2022-07-30T12:04:55.411Z,3448.00
2022-07-30T12:05:55.349Z,3628.00
2022-07-30T12:06:55.353Z,2712.00
2022-07-30T12:07:55.353Z,3204.00
2022-07-30T12:08:58.665Z,2664.00
2022-07-30T12:09:55.355Z,2844.00
2022-07-30T12:10:55.358Z,3428.00
2022-07-30T12:11:55.359Z,3468.00
2022-07-30T12:12:55.360Z,3280.00
2022-07-30T12:13:55.381Z,3532.00
2022-07-30T12:14:58.991Z,3424.00
2022-07-30T12:15:55.372Z,3572.00
2022-07-30T12:16:55.369Z,3564.00
2022-07-30T12:18:11.035Z,3556.00
2022-07-30T12:18:55.377Z,3592.00
2022-07-30T12:19:55.371Z,3632.00
2022-07-30T12:20:55.375Z,3644.00
2022-07-30T12:21:55.375Z,3660.00
2022-07-30T12:22:55.379Z,3708.00
2022-07-30T12:23:55.392Z,3760.00
2022-07-30T12:24:55.383Z,3764.00
2022-07-30T12:25:55.383Z,3748.00
2022-07-30T12:26:55.388Z,3460.00
2022-07-30T12:27:55.386Z,2948.00
2022-07-30T12:28:55.402Z,3468.00
2022-07-30T12:29:55.392Z,3336.00
2022-07-30T12:30:55.410Z,3644.00
2022-07-30T12:31:55.396Z,2680.00